Terminal Aerodrome Forecast
Issued by NWS

Home | Current Version | Previous Version | Text Only | Print | Product List | Glossary On
Versions: 1 2 3 4 5 6 7 8 9 10 11 12 13 14 15 16 17 18 19 20 21 22 23 24
000
FTUS43 KLSX 221100
TAFSUS
TAF
KSUS 221134Z 2212/2312 12006KT 4SM -RA BR OVC025
     FM221600 14007KT 2SM -RA BR OVC008
     FM230000 17011KT 4SM -RA BR OVC008
     FM230500 23008KT P6SM OVC025=

USA.gov is the U.S. government's official web portal to all federal, state and local government web resources and services.